AFL1882 UUEE-UCFM
Flight info
| Callsign | AFL1882 |
|---|---|
| Flight time | 3h 57m |
| Altitude | 35000 |
| Route | KOGOM3F/06C KOGOM L94 EKPIR M864 INKEB L94 UNORO T788 BENAP L991 MULTA M199 AKB L147 BASAN KALIN1 |
| Aircraft | A21N/M-SADIE2E3FHJ1RWGY/LB1U1 |
Departure
| Time | 2026-04-09 19:21 |
|---|---|
| Airport | Sheremetyevo International Airport (UUEE) |
Arrival
| Time | 2026-04-09 23:19 |
|---|---|
| Airport | Manas International Airport (UCFM) |
| Time | Latitude | Longitude | Altitude | Speed | Heading |
|---|---|---|---|---|---|
| 2026-04-09 18:27 | 55.97799 | 37.40325 | 644 ft | 0 kts | 167° |
| 2026-04-09 18:41 | 55.97799 | 37.40324 | 644 ft | 1 kts | 167° |
| 2026-04-09 18:41 | 55.97822 | 37.40318 | 645 ft | 4 kts | 183° |
| 2026-04-09 18:41 | 55.97846 | 37.40330 | 647 ft | 4 kts | 217° |
| 2026-04-09 18:42 | 55.97859 | 37.40360 | 648 ft | 1 kts | 255° |
| 2026-04-09 18:42 | 55.97860 | 37.40361 | 648 ft | 0 kts | 255° |
| 2026-04-09 18:47 | 55.97859 | 37.40357 | 648 ft | 1 kts | 255° |
| 2026-04-09 18:47 | 55.97855 | 37.40327 | 646 ft | 4 kts | 255° |
| 2026-04-09 18:47 | 55.97845 | 37.40261 | 644 ft | 7 kts | 255° |
| 2026-04-09 18:48 | 55.97829 | 37.40159 | 646 ft | 10 kts | 255° |
| 2026-04-09 18:48 | 55.97809 | 37.40025 | 644 ft | 12 kts | 255° |
| 2026-04-09 18:48 | 55.97786 | 37.39869 | 646 ft | 14 kts | 255° |
| 2026-04-09 18:48 | 55.97763 | 37.39715 | 644 ft | 10 kts | 255° |
| 2026-04-09 18:49 | 55.97738 | 37.39673 | 644 ft | 6 kts | 159° |
| 2026-04-09 18:49 | 55.97690 | 37.39705 | 644 ft | 8 kts | 166° |
| 2026-04-09 18:49 | 55.97627 | 37.39734 | 644 ft | 10 kts | 165° |
| 2026-04-09 18:49 | 55.97556 | 37.39751 | 644 ft | 11 kts | 208° |
| 2026-04-09 18:50 | 55.97526 | 37.39620 | 644 ft | 13 kts | 256° |
| 2026-04-09 18:50 | 55.97501 | 37.39459 | 646 ft | 14 kts | 255° |
| 2026-04-09 18:50 | 55.97474 | 37.39276 | 644 ft | 16 kts | 255° |
| 2026-04-09 18:50 | 55.97444 | 37.39076 | 647 ft | 17 kts | 255° |
| 2026-04-09 18:51 | 55.97413 | 37.38868 | 646 ft | 13 kts | 255° |
| 2026-04-09 18:51 | 55.97395 | 37.38741 | 644 ft | 10 kts | 258° |
| 2026-04-09 18:51 | 55.97409 | 37.38634 | 644 ft | 10 kts | 280° |
| 2026-04-09 18:51 | 55.97373 | 37.38533 | 644 ft | 12 kts | 185° |
| 2026-04-09 18:52 | 55.97316 | 37.38557 | 644 ft | 6 kts | 165° |
| 2026-04-09 18:52 | 55.97312 | 37.38559 | 644 ft | 0 kts | 165° |
| 2026-04-09 19:05 | 55.97307 | 37.38561 | 644 ft | 2 kts | 165° |
| 2026-04-09 19:05 | 55.97285 | 37.38572 | 644 ft | 5 kts | 164° |
| 2026-04-09 19:05 | 55.97243 | 37.38592 | 644 ft | 8 kts | 166° |
| 2026-04-09 19:06 | 55.97184 | 37.38621 | 644 ft | 10 kts | 165° |
| 2026-04-09 19:06 | 55.97160 | 37.38632 | 644 ft | 0 kts | 165° |
| 2026-04-09 19:09 | 55.97159 | 37.38632 | 644 ft | 0 kts | 165° |
| 2026-04-09 19:10 | 55.97147 | 37.38638 | 663 ft | 3 kts | 165° |
| 2026-04-09 19:10 | 55.97121 | 37.38650 | 644 ft | 2 kts | 165° |
| 2026-04-09 19:10 | 55.97120 | 37.38651 | 644 ft | 0 kts | 165° |
| 2026-04-09 19:18 | 55.97118 | 37.38651 | 644 ft | 1 kts | 165° |
| 2026-04-09 19:19 | 55.97098 | 37.38661 | 644 ft | 5 kts | 165° |
| 2026-04-09 19:19 | 55.97054 | 37.38682 | 645 ft | 8 kts | 165° |
| 2026-04-09 19:19 | 55.96999 | 37.38715 | 645 ft | 7 kts | 135° |
| 2026-04-09 19:19 | 55.97000 | 37.38797 | 645 ft | 5 kts | 72° |
| 2026-04-09 19:20 | 55.97002 | 37.38806 | 644 ft | 0 kts | 72° |
| 2026-04-09 19:21 | 55.97057 | 37.39170 | 644 ft | 65 kts | 75° |
| 2026-04-09 19:21 | 55.97231 | 37.40331 | 645 ft | 125 kts | 75° |
| 2026-04-09 19:21 | 55.97495 | 37.42095 | 672 ft | 163 kts | 74° |
| 2026-04-09 19:21 | 55.97750 | 37.43963 | 1316 ft | 155 kts | 75° |
| 2026-04-09 19:22 | 55.97735 | 37.45893 | 2066 ft | 153 kts | 85° |
| 2026-04-09 19:22 | 55.97711 | 37.47150 | 2597 ft | 147 kts | 82° |
| 2026-04-09 19:22 | 55.97735 | 37.49502 | 3650 ft | 142 kts | 83° |
| 2026-04-09 19:22 | 55.97764 | 37.51376 | 4149 ft | 163 kts | 84° |
| 2026-04-09 19:23 | 55.97783 | 37.52790 | 4461 ft | 178 kts | 85° |
| 2026-04-09 19:23 | 55.97824 | 37.55971 | 5081 ft | 209 kts | 86° |
| 2026-04-09 19:23 | 55.97841 | 37.57772 | 5344 ft | 227 kts | 88° |
| 2026-04-09 19:23 | 55.97576 | 37.60663 | 5926 ft | 247 kts | 107° |
| 2026-04-09 19:24 | 55.96663 | 37.63359 | 6678 ft | 261 kts | 123° |
| 2026-04-09 19:24 | 55.95109 | 37.66705 | 7775 ft | 266 kts | 124° |
| 2026-04-09 19:24 | 55.94302 | 37.68427 | 8379 ft | 268 kts | 124° |
| 2026-04-09 19:24 | 55.93109 | 37.71008 | 9314 ft | 271 kts | 123° |
| 2026-04-09 19:25 | 55.91909 | 37.73626 | 10190 ft | 275 kts | 123° |
| 2026-04-09 19:25 | 55.90685 | 37.76385 | 10666 ft | 293 kts | 121° |
| 2026-04-09 19:25 | 55.89418 | 37.79410 | 10978 ft | 315 kts | 121° |
| 2026-04-09 19:26 | 55.86676 | 37.85969 | 11851 ft | 337 kts | 121° |
| 2026-04-09 19:26 | 55.85268 | 37.89320 | 12239 ft | 339 kts | 121° |
| 2026-04-09 19:26 | 55.83858 | 37.92681 | 12576 ft | 340 kts | 121° |
| 2026-04-09 19:26 | 55.82443 | 37.96051 | 12838 ft | 341 kts | 121° |
| 2026-04-09 19:27 | 55.81018 | 37.99440 | 13059 ft | 342 kts | 121° |
| 2026-04-09 19:27 | 55.79609 | 38.02857 | 13565 ft | 342 kts | 117° |
| 2026-04-09 19:27 | 55.78613 | 38.06715 | 13943 ft | 348 kts | 101° |
| 2026-04-09 19:27 | 55.78350 | 38.10998 | 14284 ft | 351 kts | 84° |
| 2026-04-09 19:28 | 55.78786 | 38.15264 | 14816 ft | 353 kts | 74° |
| 2026-04-09 19:28 | 55.79428 | 38.19481 | 15350 ft | 356 kts | 73° |
| 2026-04-09 19:28 | 55.80067 | 38.23726 | 15882 ft | 359 kts | 74° |
| 2026-04-09 19:29 | 55.81359 | 38.32750 | 16915 ft | 365 kts | 74° |
| 2026-04-09 19:29 | 55.81971 | 38.37145 | 17395 ft | 367 kts | 74° |
| 2026-04-09 19:29 | 55.82580 | 38.41555 | 17864 ft | 369 kts | 74° |
| 2026-04-09 19:29 | 55.83196 | 38.45993 | 18314 ft | 371 kts | 75° |
| 2026-04-09 19:30 | 55.83814 | 38.50472 | 18698 ft | 373 kts | 74° |
| 2026-04-09 19:30 | 55.84435 | 38.54977 | 19096 ft | 375 kts | 74° |
| 2026-04-09 19:30 | 55.85064 | 38.59508 | 19474 ft | 378 kts | 74° |
| 2026-04-09 19:30 | 55.85692 | 38.64059 | 19847 ft | 380 kts | 75° |
| 2026-04-09 19:31 | 55.86313 | 38.68643 | 20224 ft | 381 kts | 75° |
| 2026-04-09 19:31 | 55.86932 | 38.73261 | 20561 ft | 384 kts | 75° |
| 2026-04-09 19:31 | 55.87553 | 38.77904 | 20910 ft | 387 kts | 75° |
| 2026-04-09 19:31 | 55.88184 | 38.82568 | 21272 ft | 389 kts | 75° |
| 2026-04-09 19:32 | 55.88811 | 38.87209 | 21625 ft | 391 kts | 75° |
| 2026-04-09 19:32 | 55.89445 | 38.91931 | 21993 ft | 393 kts | 75° |
| 2026-04-09 19:32 | 55.90082 | 38.96691 | 22348 ft | 396 kts | 75° |
| 2026-04-09 19:32 | 55.90721 | 39.01487 | 22687 ft | 399 kts | 75° |
| 2026-04-09 19:33 | 55.91367 | 39.06313 | 23047 ft | 401 kts | 75° |
| 2026-04-09 19:33 | 55.92010 | 39.11160 | 23421 ft | 403 kts | 75° |
| 2026-04-09 19:33 | 55.92651 | 39.16034 | 23772 ft | 404 kts | 75° |
| 2026-04-09 19:33 | 55.93295 | 39.20925 | 24159 ft | 406 kts | 75° |
| 2026-04-09 19:34 | 55.93942 | 39.25849 | 24583 ft | 408 kts | 75° |
| 2026-04-09 19:34 | 55.94589 | 39.30792 | 24999 ft | 411 kts | 75° |
| 2026-04-09 19:34 | 55.95239 | 39.35777 | 25405 ft | 413 kts | 75° |
| 2026-04-09 19:34 | 55.95889 | 39.40785 | 25797 ft | 416 kts | 75° |
| 2026-04-09 19:35 | 55.96541 | 39.45838 | 26175 ft | 418 kts | 75° |
| 2026-04-09 19:35 | 55.97197 | 39.50913 | 26534 ft | 420 kts | 75° |
| 2026-04-09 19:35 | 55.97853 | 39.56006 | 27012 ft | 420 kts | 75° |
| 2026-04-09 19:35 | 55.98509 | 39.61068 | 27502 ft | 418 kts | 75° |
| 2026-04-09 19:36 | 55.99264 | 39.66086 | 27907 ft | 418 kts | 70° |
| 2026-04-09 19:36 | 56.00418 | 39.70828 | 28036 ft | 416 kts | 62° |
| 2026-04-09 19:36 | 56.01704 | 39.75464 | 28048 ft | 416 kts | 66° |
| 2026-04-09 19:37 | 56.02987 | 39.85469 | 28028 ft | 421 kts | 84° |
| 2026-04-09 19:37 | 56.03131 | 39.95938 | 28025 ft | 421 kts | 86° |
| 2026-04-09 19:38 | 56.03253 | 40.06421 | 28155 ft | 420 kts | 86° |
| 2026-04-09 19:38 | 56.03319 | 40.11649 | 28599 ft | 419 kts | 86° |
| 2026-04-09 19:38 | 56.03382 | 40.16870 | 29106 ft | 418 kts | 86° |
| 2026-04-09 19:38 | 56.03441 | 40.22061 | 29589 ft | 416 kts | 86° |
| 2026-04-09 19:39 | 56.03501 | 40.27179 | 30056 ft | 415 kts | 86° |
| 2026-04-09 19:39 | 56.03570 | 40.32334 | 30443 ft | 414 kts | 85° |
| 2026-04-09 19:39 | 56.03717 | 40.37482 | 30773 ft | 414 kts | 84° |
| 2026-04-09 19:39 | 56.03875 | 40.42638 | 31086 ft | 415 kts | 84° |
| 2026-04-09 19:40 | 56.04027 | 40.47787 | 31420 ft | 415 kts | 85° |
| 2026-04-09 19:40 | 56.04174 | 40.52943 | 31754 ft | 415 kts | 85° |
| 2026-04-09 19:40 | 56.04316 | 40.58110 | 32090 ft | 416 kts | 85° |
| 2026-04-09 19:40 | 56.04454 | 40.63267 | 32419 ft | 416 kts | 85° |
| 2026-04-09 19:41 | 56.04595 | 40.68448 | 32744 ft | 416 kts | 85° |
| 2026-04-09 19:41 | 56.04729 | 40.73618 | 33067 ft | 416 kts | 85° |
| 2026-04-09 19:41 | 56.04859 | 40.78717 | 33368 ft | 416 kts | 86° |
| 2026-04-09 19:41 | 56.04990 | 40.83948 | 33686 ft | 416 kts | 86° |
| 2026-04-09 19:42 | 56.05118 | 40.89109 | 33961 ft | 416 kts | 86° |
| 2026-04-09 19:42 | 56.05245 | 40.94218 | 34177 ft | 416 kts | 86° |
| 2026-04-09 19:42 | 56.05374 | 40.99459 | 34383 ft | 417 kts | 86° |
| 2026-04-09 19:42 | 56.05498 | 41.04583 | 34565 ft | 418 kts | 86° |
| 2026-04-09 19:43 | 56.05620 | 41.09776 | 34763 ft | 418 kts | 86° |
| 2026-04-09 19:43 | 56.05740 | 41.14999 | 34931 ft | 419 kts | 86° |
| 2026-04-09 19:43 | 56.05858 | 41.20226 | 34998 ft | 422 kts | 86° |
| 2026-04-09 19:44 | 56.06087 | 41.30716 | 34994 ft | 421 kts | 86° |
| 2026-04-09 19:44 | 56.06309 | 41.41187 | 34979 ft | 421 kts | 86° |
| 2026-04-09 19:45 | 56.06527 | 41.51750 | 34979 ft | 428 kts | 86° |
| 2026-04-09 19:45 | 56.06730 | 41.62209 | 34989 ft | 422 kts | 87° |
| 2026-04-09 19:46 | 56.06928 | 41.72729 | 34979 ft | 423 kts | 87° |
| 2026-04-09 19:46 | 56.07113 | 41.83248 | 34969 ft | 423 kts | 87° |
| 2026-04-09 19:47 | 56.07291 | 41.93767 | 34963 ft | 423 kts | 87° |
| 2026-04-09 19:47 | 56.07461 | 42.04298 | 34963 ft | 423 kts | 87° |
| 2026-04-09 19:48 | 56.07618 | 42.14816 | 34957 ft | 423 kts | 87° |
| 2026-04-09 19:48 | 56.07769 | 42.25339 | 34963 ft | 423 kts | 88° |
| 2026-04-09 19:49 | 56.07912 | 42.35875 | 34963 ft | 423 kts | 88° |
| 2026-04-09 19:49 | 56.08043 | 42.46425 | 34962 ft | 425 kts | 88° |
| 2026-04-09 19:50 | 56.08170 | 42.56999 | 34964 ft | 425 kts | 88° |
| 2026-04-09 19:50 | 56.08286 | 42.67591 | 34964 ft | 425 kts | 88° |
| 2026-04-09 19:51 | 56.08390 | 42.78112 | 34945 ft | 425 kts | 88° |
| 2026-04-09 19:51 | 56.08486 | 42.88735 | 34958 ft | 426 kts | 88° |
| 2026-04-09 19:52 | 56.08576 | 42.99349 | 34953 ft | 426 kts | 88° |
| 2026-04-09 19:52 | 56.08654 | 43.09971 | 34942 ft | 426 kts | 88° |
| 2026-04-09 19:53 | 56.08727 | 43.20598 | 34950 ft | 426 kts | 89° |
| 2026-04-09 19:53 | 56.08789 | 43.31204 | 34950 ft | 426 kts | 89° |
| 2026-04-09 19:54 | 56.08842 | 43.41827 | 34948 ft | 426 kts | 89° |
| 2026-04-09 19:54 | 56.08884 | 43.52372 | 34958 ft | 426 kts | 89° |
| 2026-04-09 19:55 | 56.08916 | 43.62979 | 34952 ft | 426 kts | 89° |
| 2026-04-09 19:55 | 56.08938 | 43.73589 | 34960 ft | 426 kts | 89° |
| 2026-04-09 19:56 | 56.08953 | 43.84219 | 34963 ft | 426 kts | 89° |
| 2026-04-09 19:56 | 56.08963 | 43.94840 | 34970 ft | 426 kts | 89° |
| 2026-04-09 19:57 | 56.08958 | 44.05519 | 34960 ft | 429 kts | 89° |
| 2026-04-09 19:57 | 56.08946 | 44.16202 | 34955 ft | 429 kts | 90° |
| 2026-04-09 19:58 | 56.08907 | 44.32270 | 34927 ft | 430 kts | 90° |
| 2026-04-09 19:58 | 56.08879 | 44.41161 | 34946 ft | 430 kts | 90° |
| 2026-04-09 19:59 | 56.08825 | 44.53606 | 34943 ft | 430 kts | 90° |
| 2026-04-09 19:59 | 56.08779 | 44.62522 | 34941 ft | 430 kts | 90° |
| 2026-04-09 20:00 | 56.08714 | 44.73237 | 34941 ft | 430 kts | 90° |
| 2026-04-09 20:00 | 56.08646 | 44.83970 | 34954 ft | 432 kts | 90° |
| 2026-04-09 20:01 | 56.08566 | 44.94725 | 34943 ft | 432 kts | 91° |
| 2026-04-09 20:01 | 56.08478 | 45.05479 | 34946 ft | 432 kts | 91° |
| 2026-04-09 20:02 | 56.08378 | 45.16232 | 34953 ft | 432 kts | 91° |
| 2026-04-09 20:02 | 56.08272 | 45.26987 | 34942 ft | 432 kts | 91° |
| 2026-04-09 20:03 | 56.08152 | 45.37753 | 34940 ft | 432 kts | 91° |
| 2026-04-09 20:03 | 56.08031 | 45.48517 | 34953 ft | 432 kts | 91° |
| 2026-04-09 20:04 | 56.07898 | 45.59217 | 34943 ft | 432 kts | 91° |
| 2026-04-09 20:04 | 56.07757 | 45.69974 | 34937 ft | 433 kts | 91° |
| 2026-04-09 20:05 | 56.07603 | 45.80758 | 34943 ft | 433 kts | 91° |
| 2026-04-09 20:05 | 56.07439 | 45.91536 | 34934 ft | 433 kts | 92° |
| 2026-04-09 20:06 | 56.07258 | 46.02293 | 34929 ft | 432 kts | 92° |
| 2026-04-09 20:06 | 56.07073 | 46.13085 | 34946 ft | 433 kts | 92° |
| 2026-04-09 20:07 | 56.06886 | 46.23790 | 34937 ft | 433 kts | 92° |
| 2026-04-09 20:07 | 56.06684 | 46.34557 | 34947 ft | 433 kts | 92° |
| 2026-04-09 20:08 | 56.06469 | 46.45362 | 34949 ft | 434 kts | 92° |
| 2026-04-09 20:08 | 56.05481 | 46.55964 | 34940 ft | 434 kts | 109° |
| 2026-04-09 20:09 | 56.03320 | 46.66038 | 34937 ft | 434 kts | 111° |
| 2026-04-09 20:09 | 56.01128 | 46.76095 | 34945 ft | 434 kts | 111° |
| 2026-04-09 20:10 | 55.98967 | 46.86146 | 34948 ft | 434 kts | 111° |
| 2026-04-09 20:10 | 55.96812 | 46.96124 | 34952 ft | 434 kts | 111° |
| 2026-04-09 20:11 | 55.94634 | 47.06177 | 34962 ft | 434 kts | 111° |
| 2026-04-09 20:11 | 55.92440 | 47.16221 | 34966 ft | 434 kts | 111° |
| 2026-04-09 20:12 | 55.90237 | 47.26261 | 34974 ft | 434 kts | 111° |
| 2026-04-09 20:12 | 55.88025 | 47.36284 | 34970 ft | 434 kts | 111° |
| 2026-04-09 20:13 | 55.85828 | 47.46231 | 34968 ft | 434 kts | 111° |
| 2026-04-09 20:13 | 55.83606 | 47.56236 | 34963 ft | 435 kts | 112° |
| 2026-04-09 20:14 | 55.81366 | 47.66244 | 34949 ft | 435 kts | 112° |
| 2026-04-09 20:14 | 55.79122 | 47.76250 | 34942 ft | 435 kts | 112° |
| 2026-04-09 20:15 | 55.76873 | 47.86228 | 34946 ft | 435 kts | 112° |
| 2026-04-09 20:15 | 55.74608 | 47.96197 | 34955 ft | 435 kts | 112° |
| 2026-04-09 20:16 | 55.72335 | 48.06186 | 34948 ft | 436 kts | 113° |
| 2026-04-09 20:16 | 55.70070 | 48.16101 | 34952 ft | 437 kts | 114° |
| 2026-04-09 20:17 | 55.67775 | 48.26078 | 34952 ft | 437 kts | 114° |
| 2026-04-09 20:17 | 55.65471 | 48.36037 | 34949 ft | 437 kts | 114° |
| 2026-04-09 20:18 | 55.63162 | 48.45997 | 34954 ft | 437 kts | 114° |
| 2026-04-09 20:18 | 55.60845 | 48.55946 | 34951 ft | 438 kts | 114° |
| 2026-04-09 20:19 | 55.58513 | 48.65911 | 34957 ft | 437 kts | 115° |
| 2026-04-09 20:19 | 55.56197 | 48.75770 | 34967 ft | 437 kts | 115° |
| 2026-04-09 20:20 | 55.53860 | 48.85673 | 34963 ft | 437 kts | 115° |
| 2026-04-09 20:20 | 55.51508 | 48.95588 | 34962 ft | 437 kts | 115° |
| 2026-04-09 20:21 | 55.49150 | 49.05488 | 34970 ft | 437 kts | 115° |
| 2026-04-09 20:21 | 55.46784 | 49.15371 | 34966 ft | 439 kts | 115° |
| 2026-04-09 20:22 | 55.44399 | 49.25278 | 34970 ft | 439 kts | 115° |
| 2026-04-09 20:22 | 55.42011 | 49.35126 | 34969 ft | 439 kts | 115° |
| 2026-04-09 20:23 | 55.39617 | 49.45004 | 34974 ft | 439 kts | 115° |
| 2026-04-09 20:23 | 55.37201 | 49.54879 | 34967 ft | 439 kts | 116° |
| 2026-04-09 20:24 | 55.34792 | 49.64741 | 34974 ft | 439 kts | 115° |
| 2026-04-09 20:24 | 55.32382 | 49.74598 | 34975 ft | 439 kts | 116° |
| 2026-04-09 20:25 | 55.29958 | 49.84426 | 34958 ft | 439 kts | 116° |
| 2026-04-09 20:25 | 55.27519 | 49.94250 | 34971 ft | 439 kts | 116° |
| 2026-04-09 20:26 | 55.25062 | 50.04071 | 34973 ft | 439 kts | 116° |
| 2026-04-09 20:26 | 55.22602 | 50.13868 | 34979 ft | 439 kts | 116° |
| 2026-04-09 20:27 | 55.20145 | 50.23638 | 34976 ft | 442 kts | 116° |
| 2026-04-09 20:27 | 55.17670 | 50.33496 | 34980 ft | 442 kts | 116° |
| 2026-04-09 20:28 | 55.15173 | 50.43344 | 34981 ft | 442 kts | 117° |
| 2026-04-09 20:28 | 55.12676 | 50.53152 | 34981 ft | 442 kts | 117° |
| 2026-04-09 20:29 | 55.10168 | 50.62953 | 34987 ft | 442 kts | 117° |
| 2026-04-09 20:29 | 55.07653 | 50.72736 | 34975 ft | 441 kts | 117° |
| 2026-04-09 20:30 | 55.05034 | 50.82370 | 34979 ft | 437 kts | 124° |
| 2026-04-09 20:30 | 55.01220 | 50.90395 | 34997 ft | 432 kts | 136° |
| 2026-04-09 20:31 | 54.97019 | 50.97876 | 34977 ft | 432 kts | 137° |
| 2026-04-09 20:31 | 54.92837 | 51.05385 | 34994 ft | 432 kts | 136° |
| 2026-04-09 20:32 | 54.88668 | 51.12885 | 34978 ft | 429 kts | 137° |
| 2026-04-09 20:32 | 54.84509 | 51.20326 | 34980 ft | 429 kts | 137° |
| 2026-04-09 20:33 | 54.80360 | 51.27761 | 34981 ft | 429 kts | 137° |
| 2026-04-09 20:33 | 54.76202 | 51.35188 | 34982 ft | 429 kts | 137° |
| 2026-04-09 20:34 | 54.72041 | 51.42585 | 34973 ft | 429 kts | 137° |
| 2026-04-09 20:34 | 54.67872 | 51.49977 | 34972 ft | 430 kts | 137° |
| 2026-04-09 20:35 | 54.63717 | 51.57322 | 34981 ft | 430 kts | 137° |
| 2026-04-09 20:35 | 54.59538 | 51.64683 | 34987 ft | 430 kts | 137° |
| 2026-04-09 20:36 | 54.55348 | 51.72052 | 34985 ft | 430 kts | 137° |
| 2026-04-09 20:36 | 54.51153 | 51.79403 | 34975 ft | 430 kts | 137° |
| 2026-04-09 20:37 | 54.46948 | 51.86742 | 34984 ft | 431 kts | 137° |
| 2026-04-09 20:37 | 54.42731 | 51.94081 | 34991 ft | 431 kts | 137° |
| 2026-04-09 20:38 | 54.38515 | 52.01393 | 34994 ft | 431 kts | 137° |
| 2026-04-09 20:38 | 54.34296 | 52.08691 | 34996 ft | 431 kts | 137° |
| 2026-04-09 20:39 | 54.30102 | 52.15922 | 34982 ft | 430 kts | 138° |
| 2026-04-09 20:39 | 54.25878 | 52.23184 | 34996 ft | 430 kts | 138° |
| 2026-04-09 20:40 | 54.21645 | 52.30438 | 35000 ft | 430 kts | 138° |
| 2026-04-09 20:40 | 54.17414 | 52.37668 | 34999 ft | 430 kts | 138° |
| 2026-04-09 20:41 | 54.13174 | 52.44889 | 35005 ft | 430 kts | 139° |
| 2026-04-09 20:41 | 54.08942 | 52.52074 | 34997 ft | 429 kts | 139° |
| 2026-04-09 20:42 | 54.04704 | 52.59224 | 34997 ft | 429 kts | 139° |
| 2026-04-09 20:42 | 54.00459 | 52.66360 | 34997 ft | 429 kts | 139° |
| 2026-04-09 20:43 | 53.96244 | 52.73457 | 34994 ft | 429 kts | 139° |
| 2026-04-09 20:43 | 53.92006 | 52.80582 | 34976 ft | 428 kts | 140° |
| 2026-04-09 20:44 | 53.87775 | 52.87660 | 34995 ft | 427 kts | 140° |
| 2026-04-09 20:44 | 53.83547 | 52.94718 | 34994 ft | 427 kts | 140° |
| 2026-04-09 20:45 | 53.79425 | 53.01996 | 34991 ft | 428 kts | 138° |
| 2026-04-09 20:45 | 53.75322 | 53.09317 | 34993 ft | 428 kts | 138° |
| 2026-04-09 20:46 | 53.71219 | 53.16599 | 34983 ft | 427 kts | 139° |
| 2026-04-09 20:46 | 53.67125 | 53.23853 | 34988 ft | 427 kts | 139° |
| 2026-04-09 20:47 | 53.63026 | 53.31087 | 34989 ft | 426 kts | 140° |
| 2026-04-09 20:47 | 53.58912 | 53.38318 | 34979 ft | 428 kts | 140° |
| 2026-04-09 20:48 | 53.54792 | 53.45568 | 34995 ft | 428 kts | 140° |
| 2026-04-09 20:48 | 53.50691 | 53.52748 | 34991 ft | 428 kts | 140° |
| 2026-04-09 20:49 | 53.46553 | 53.59964 | 34987 ft | 428 kts | 140° |
| 2026-04-09 20:49 | 53.43117 | 53.65945 | 34991 ft | 428 kts | 140° |
| 2026-04-09 20:50 | 53.38982 | 53.73120 | 34990 ft | 428 kts | 140° |
| 2026-04-09 20:50 | 53.34177 | 53.81435 | 34976 ft | 426 kts | 141° |
| 2026-04-09 20:51 | 53.30725 | 53.87404 | 34981 ft | 426 kts | 141° |
| 2026-04-09 20:51 | 53.26602 | 53.94517 | 34973 ft | 426 kts | 141° |
| 2026-04-09 20:52 | 53.22499 | 54.01573 | 34976 ft | 426 kts | 141° |
| 2026-04-09 20:52 | 53.18367 | 54.08662 | 34972 ft | 426 kts | 141° |
| 2026-04-09 20:53 | 53.14237 | 54.15724 | 34960 ft | 425 kts | 142° |
| 2026-04-09 20:53 | 53.10106 | 54.22762 | 34957 ft | 425 kts | 142° |
| 2026-04-09 20:54 | 53.05971 | 54.29788 | 34955 ft | 425 kts | 142° |
| 2026-04-09 20:54 | 53.01831 | 54.36798 | 34950 ft | 425 kts | 142° |
| 2026-04-09 20:55 | 52.97689 | 54.43793 | 34921 ft | 424 kts | 142° |
| 2026-04-09 20:55 | 52.93573 | 54.50711 | 34940 ft | 423 kts | 142° |
| 2026-04-09 20:56 | 52.89437 | 54.57639 | 34931 ft | 423 kts | 142° |
| 2026-04-09 20:56 | 52.85291 | 54.64565 | 34936 ft | 423 kts | 142° |
| 2026-04-09 20:57 | 52.81155 | 54.71454 | 34927 ft | 423 kts | 143° |
| 2026-04-09 20:57 | 52.77000 | 54.78352 | 34912 ft | 422 kts | 143° |
| 2026-04-09 20:58 | 52.72880 | 54.85177 | 34912 ft | 422 kts | 143° |
| 2026-04-09 20:58 | 52.68729 | 54.92037 | 34921 ft | 422 kts | 143° |
| 2026-04-09 20:59 | 52.64575 | 54.98878 | 34908 ft | 422 kts | 143° |
| 2026-04-09 20:59 | 52.60415 | 55.05707 | 34903 ft | 422 kts | 143° |
| 2026-04-09 21:00 | 52.56242 | 55.12540 | 34892 ft | 424 kts | 143° |
| 2026-04-09 21:01 | 52.49962 | 55.22784 | 34889 ft | 424 kts | 143° |
| 2026-04-09 21:01 | 52.45770 | 55.29601 | 34886 ft | 424 kts | 143° |
| 2026-04-09 21:02 | 52.41599 | 55.36366 | 34872 ft | 424 kts | 143° |
| 2026-04-09 21:02 | 52.37404 | 55.43149 | 34859 ft | 423 kts | 143° |
| 2026-04-09 21:03 | 52.33215 | 55.49904 | 34860 ft | 423 kts | 143° |
| 2026-04-09 21:03 | 52.29021 | 55.56645 | 34856 ft | 423 kts | 143° |
| 2026-04-09 21:04 | 52.24805 | 55.63404 | 34857 ft | 424 kts | 143° |
| 2026-04-09 21:04 | 52.20623 | 55.70093 | 34828 ft | 423 kts | 143° |
| 2026-04-09 21:05 | 52.16418 | 55.76797 | 34844 ft | 422 kts | 143° |
| 2026-04-09 21:05 | 52.12218 | 55.83470 | 34844 ft | 422 kts | 143° |
| 2026-04-09 21:06 | 52.08007 | 55.90149 | 34846 ft | 422 kts | 143° |
| 2026-04-09 21:06 | 52.03802 | 55.96797 | 34840 ft | 422 kts | 144° |
| 2026-04-09 21:07 | 51.99575 | 56.03456 | 34827 ft | 424 kts | 143° |
| 2026-04-09 21:07 | 51.95333 | 56.10129 | 34839 ft | 424 kts | 143° |
| 2026-04-09 21:08 | 51.91120 | 56.16736 | 34838 ft | 424 kts | 143° |
| 2026-04-09 21:08 | 51.86873 | 56.23375 | 34838 ft | 424 kts | 144° |
| 2026-04-09 21:09 | 51.82610 | 56.30016 | 34827 ft | 426 kts | 143° |
| 2026-04-09 21:09 | 51.78339 | 56.36661 | 34836 ft | 426 kts | 143° |
| 2026-04-09 21:10 | 51.74052 | 56.43309 | 34845 ft | 426 kts | 143° |
| 2026-04-09 21:10 | 51.69760 | 56.49945 | 34842 ft | 426 kts | 144° |
| 2026-04-09 21:11 | 51.65494 | 56.56463 | 34838 ft | 423 kts | 146° |
| 2026-04-09 21:11 | 51.60572 | 56.61156 | 34847 ft | 405 kts | 167° |
| 2026-04-09 21:12 | 51.55188 | 56.63598 | 34852 ft | 402 kts | 171° |
| 2026-04-09 21:12 | 51.49791 | 56.65943 | 34850 ft | 402 kts | 170° |
| 2026-04-09 21:13 | 51.44404 | 56.68331 | 34843 ft | 402 kts | 170° |
| 2026-04-09 21:13 | 51.39000 | 56.70736 | 34831 ft | 403 kts | 170° |
| 2026-04-09 21:14 | 51.33589 | 56.73139 | 34843 ft | 403 kts | 170° |
| 2026-04-09 21:14 | 51.28184 | 56.75532 | 34852 ft | 403 kts | 170° |
| 2026-04-09 21:15 | 51.22766 | 56.77928 | 34865 ft | 402 kts | 170° |
| 2026-04-09 21:15 | 51.17423 | 56.80284 | 34813 ft | 401 kts | 170° |
| 2026-04-09 21:16 | 51.12021 | 56.82659 | 34834 ft | 402 kts | 170° |
| 2026-04-09 21:16 | 51.06626 | 56.85022 | 34844 ft | 402 kts | 170° |
| 2026-04-09 21:17 | 51.01221 | 56.87291 | 34862 ft | 402 kts | 171° |
| 2026-04-09 21:17 | 50.95839 | 56.89542 | 34843 ft | 402 kts | 171° |
| 2026-04-09 21:18 | 50.90392 | 56.91819 | 34831 ft | 403 kts | 171° |
| 2026-04-09 21:18 | 50.84998 | 56.94067 | 34843 ft | 403 kts | 171° |
| 2026-04-09 21:19 | 50.79565 | 56.96328 | 34850 ft | 403 kts | 171° |
| 2026-04-09 21:19 | 50.74132 | 56.98582 | 34850 ft | 403 kts | 171° |
| 2026-04-09 21:20 | 50.68706 | 57.00824 | 34818 ft | 403 kts | 171° |
| 2026-04-09 21:20 | 50.63261 | 57.03073 | 34851 ft | 404 kts | 171° |
| 2026-04-09 21:21 | 50.57868 | 57.05302 | 34863 ft | 402 kts | 171° |
| 2026-04-09 21:21 | 50.52452 | 57.07533 | 34858 ft | 402 kts | 171° |
| 2026-04-09 21:22 | 50.47027 | 57.09753 | 34844 ft | 402 kts | 171° |
| 2026-04-09 21:22 | 50.41605 | 57.11973 | 34846 ft | 403 kts | 171° |
| 2026-04-09 21:23 | 50.36168 | 57.14194 | 34854 ft | 403 kts | 171° |
| 2026-04-09 21:23 | 50.30772 | 57.16792 | 34857 ft | 411 kts | 162° |
| 2026-04-09 21:23 | 50.28301 | 57.19020 | 34873 ft | 421 kts | 151° |
| 2026-04-09 21:24 | 50.26091 | 57.22097 | 34871 ft | 433 kts | 140° |
| 2026-04-09 21:24 | 50.24293 | 57.25934 | 34871 ft | 445 kts | 127° |
| 2026-04-09 21:24 | 50.22929 | 57.30339 | 34847 ft | 454 kts | 120° |
| 2026-04-09 21:25 | 50.20589 | 57.39549 | 34879 ft | 456 kts | 119° |
| 2026-04-09 21:25 | 50.18195 | 57.48703 | 34877 ft | 455 kts | 120° |
| 2026-04-09 21:26 | 50.15765 | 57.57823 | 34893 ft | 455 kts | 120° |
| 2026-04-09 21:26 | 50.13314 | 57.66916 | 34879 ft | 454 kts | 120° |
| 2026-04-09 21:27 | 50.10874 | 57.75933 | 34885 ft | 455 kts | 120° |
| 2026-04-09 21:27 | 50.08404 | 57.85027 | 34926 ft | 456 kts | 120° |
| 2026-04-09 21:28 | 50.05925 | 57.94111 | 34940 ft | 456 kts | 120° |
| 2026-04-09 21:28 | 50.03438 | 58.03197 | 34938 ft | 456 kts | 120° |
| 2026-04-09 21:29 | 50.00946 | 58.12261 | 34949 ft | 456 kts | 120° |
| 2026-04-09 21:29 | 49.98447 | 58.21317 | 34937 ft | 456 kts | 120° |
| 2026-04-09 21:30 | 49.95952 | 58.30312 | 34962 ft | 456 kts | 120° |
| 2026-04-09 21:30 | 49.93436 | 58.39348 | 34966 ft | 456 kts | 120° |
| 2026-04-09 21:31 | 49.90912 | 58.48377 | 34969 ft | 456 kts | 120° |
| 2026-04-09 21:31 | 49.88375 | 58.57415 | 34979 ft | 458 kts | 120° |
| 2026-04-09 21:32 | 49.85831 | 58.66478 | 34974 ft | 458 kts | 119° |
| 2026-04-09 21:32 | 49.83278 | 58.75528 | 34993 ft | 458 kts | 119° |
| 2026-04-09 21:33 | 49.80711 | 58.84568 | 35008 ft | 458 kts | 120° |
| 2026-04-09 21:33 | 49.78140 | 58.93599 | 35010 ft | 458 kts | 120° |
| 2026-04-09 21:34 | 49.75579 | 59.02570 | 35019 ft | 458 kts | 120° |
| 2026-04-09 21:34 | 49.72993 | 59.11578 | 35021 ft | 458 kts | 120° |
| 2026-04-09 21:35 | 49.70403 | 59.20579 | 35042 ft | 458 kts | 120° |
| 2026-04-09 21:35 | 49.67805 | 59.29570 | 35042 ft | 459 kts | 120° |
| 2026-04-09 21:36 | 49.65188 | 59.38608 | 35041 ft | 462 kts | 120° |
| 2026-04-09 21:36 | 49.62551 | 59.47654 | 35054 ft | 462 kts | 120° |
| 2026-04-09 21:37 | 49.59907 | 59.56688 | 35045 ft | 462 kts | 120° |
| 2026-04-09 21:37 | 49.57268 | 59.65724 | 35057 ft | 462 kts | 120° |
| 2026-04-09 21:38 | 49.54617 | 59.74733 | 35060 ft | 462 kts | 120° |
| 2026-04-09 21:38 | 49.51973 | 59.83678 | 35072 ft | 462 kts | 120° |
| 2026-04-09 21:39 | 49.49315 | 59.92657 | 35072 ft | 462 kts | 120° |
| 2026-04-09 21:39 | 49.46644 | 60.01657 | 35062 ft | 463 kts | 120° |
| 2026-04-09 21:40 | 49.43952 | 60.10657 | 35077 ft | 464 kts | 120° |
| 2026-04-09 21:40 | 49.41239 | 60.19705 | 35076 ft | 467 kts | 120° |
| 2026-04-09 21:41 | 49.38979 | 60.27231 | 35074 ft | 467 kts | 120° |
| 2026-04-09 21:41 | 49.36237 | 60.36273 | 35084 ft | 467 kts | 120° |
| 2026-04-09 21:42 | 49.33488 | 60.45294 | 35071 ft | 467 kts | 120° |
| 2026-04-09 21:42 | 49.30738 | 60.54322 | 35080 ft | 468 kts | 119° |
| 2026-04-09 21:43 | 49.27996 | 60.63354 | 35087 ft | 467 kts | 120° |
| 2026-04-09 21:43 | 49.25227 | 60.72371 | 35083 ft | 467 kts | 120° |
| 2026-04-09 21:44 | 49.22450 | 60.81373 | 35094 ft | 467 kts | 120° |
| 2026-04-09 21:44 | 49.19678 | 60.90358 | 35065 ft | 468 kts | 119° |
| 2026-04-09 21:45 | 49.16900 | 60.99362 | 35091 ft | 468 kts | 119° |
| 2026-04-09 21:45 | 49.14126 | 61.08286 | 35093 ft | 468 kts | 119° |
| 2026-04-09 21:46 | 49.11326 | 61.17262 | 35101 ft | 468 kts | 119° |
| 2026-04-09 21:46 | 49.08521 | 61.26242 | 35098 ft | 468 kts | 119° |
| 2026-04-09 21:47 | 49.05708 | 61.35191 | 35096 ft | 468 kts | 119° |
| 2026-04-09 21:47 | 49.02883 | 61.44149 | 35102 ft | 468 kts | 119° |
| 2026-04-09 21:48 | 49.00053 | 61.53084 | 35103 ft | 468 kts | 119° |
| 2026-04-09 21:48 | 48.97235 | 61.61940 | 35100 ft | 468 kts | 119° |
| 2026-04-09 21:49 | 48.94385 | 61.70855 | 35092 ft | 469 kts | 118° |
| 2026-04-09 21:49 | 48.91536 | 61.79782 | 35102 ft | 469 kts | 118° |
| 2026-04-09 21:50 | 48.88678 | 61.88703 | 35103 ft | 469 kts | 118° |
| 2026-04-09 21:50 | 48.85806 | 61.97620 | 35101 ft | 469 kts | 119° |
| 2026-04-09 21:51 | 48.82944 | 62.06466 | 35099 ft | 469 kts | 119° |
| 2026-04-09 21:51 | 48.80060 | 62.15357 | 35103 ft | 470 kts | 118° |
| 2026-04-09 21:52 | 48.77162 | 62.24253 | 35105 ft | 471 kts | 118° |
| 2026-04-09 21:52 | 48.74258 | 62.33142 | 35101 ft | 471 kts | 118° |
| 2026-04-09 21:53 | 48.71344 | 62.42031 | 35092 ft | 470 kts | 119° |
| 2026-04-09 21:53 | 48.68425 | 62.50896 | 35096 ft | 470 kts | 119° |
| 2026-04-09 21:54 | 48.65496 | 62.59771 | 35104 ft | 471 kts | 118° |
| 2026-04-09 21:54 | 48.62563 | 62.68561 | 35109 ft | 471 kts | 120° |
| 2026-04-09 21:55 | 48.59432 | 62.77251 | 35107 ft | 471 kts | 121° |
| 2026-04-09 21:55 | 48.56281 | 62.85924 | 35106 ft | 470 kts | 121° |
| 2026-04-09 21:56 | 48.53123 | 62.94585 | 35097 ft | 471 kts | 121° |
| 2026-04-09 21:56 | 48.49959 | 63.03243 | 35103 ft | 471 kts | 121° |
| 2026-04-09 21:57 | 48.46785 | 63.11890 | 35106 ft | 471 kts | 121° |
| 2026-04-09 21:57 | 48.43611 | 63.20531 | 35107 ft | 472 kts | 121° |
| 2026-04-09 21:58 | 48.40424 | 63.29171 | 35107 ft | 472 kts | 121° |
| 2026-04-09 21:58 | 48.37249 | 63.37745 | 35106 ft | 472 kts | 121° |
| 2026-04-09 21:59 | 48.34044 | 63.46372 | 35105 ft | 472 kts | 121° |
| 2026-04-09 21:59 | 48.30839 | 63.54971 | 35109 ft | 472 kts | 121° |
| 2026-04-09 22:00 | 48.27620 | 63.63576 | 35106 ft | 472 kts | 121° |
| 2026-04-09 22:00 | 48.24395 | 63.72174 | 35099 ft | 472 kts | 121° |
| 2026-04-09 22:01 | 48.21166 | 63.80752 | 35116 ft | 472 kts | 121° |
| 2026-04-09 22:01 | 48.17933 | 63.89316 | 35107 ft | 472 kts | 121° |
| 2026-04-09 22:02 | 48.14691 | 63.97869 | 35110 ft | 472 kts | 120° |
| 2026-04-09 22:02 | 48.11466 | 64.06362 | 35106 ft | 472 kts | 121° |
| 2026-04-09 22:03 | 48.08214 | 64.14901 | 35105 ft | 473 kts | 120° |
| 2026-04-09 22:03 | 48.04946 | 64.23444 | 35103 ft | 473 kts | 120° |
| 2026-04-09 22:04 | 48.01674 | 64.31968 | 35106 ft | 473 kts | 120° |
| 2026-04-09 22:04 | 47.98398 | 64.40482 | 35108 ft | 473 kts | 121° |
| 2026-04-09 22:05 | 47.95107 | 64.48993 | 35096 ft | 473 kts | 120° |
| 2026-04-09 22:05 | 47.90167 | 64.61731 | 35105 ft | 473 kts | 120° |
| 2026-04-09 22:06 | 47.86867 | 64.70214 | 35113 ft | 473 kts | 120° |
| 2026-04-09 22:06 | 47.83596 | 64.78587 | 35105 ft | 470 kts | 120° |
| 2026-04-09 22:07 | 47.80302 | 64.86984 | 35102 ft | 468 kts | 120° |
| 2026-04-09 22:07 | 47.77021 | 64.95346 | 35102 ft | 467 kts | 120° |
| 2026-04-09 22:08 | 47.73751 | 65.03686 | 35109 ft | 467 kts | 120° |
| 2026-04-09 22:08 | 47.70475 | 65.12023 | 35109 ft | 467 kts | 120° |
| 2026-04-09 22:09 | 47.67188 | 65.20337 | 35103 ft | 467 kts | 120° |
| 2026-04-09 22:09 | 47.63923 | 65.28570 | 35111 ft | 466 kts | 120° |
| 2026-04-09 22:10 | 47.60636 | 65.36841 | 35115 ft | 466 kts | 121° |
| 2026-04-09 22:10 | 47.57338 | 65.45111 | 35116 ft | 465 kts | 120° |
| 2026-04-09 22:11 | 47.54040 | 65.53358 | 35113 ft | 465 kts | 120° |
| 2026-04-09 22:11 | 47.50741 | 65.61580 | 35111 ft | 464 kts | 121° |
| 2026-04-09 22:12 | 47.47438 | 65.69783 | 35113 ft | 464 kts | 121° |
| 2026-04-09 22:12 | 47.44124 | 65.77991 | 35111 ft | 464 kts | 121° |
| 2026-04-09 22:13 | 47.40810 | 65.86181 | 35118 ft | 464 kts | 121° |
| 2026-04-09 22:13 | 47.37495 | 65.94285 | 35113 ft | 464 kts | 121° |
| 2026-04-09 22:14 | 47.34141 | 66.02448 | 35115 ft | 465 kts | 121° |
| 2026-04-09 22:14 | 47.30787 | 66.10607 | 35115 ft | 465 kts | 121° |
| 2026-04-09 22:15 | 47.27427 | 66.18755 | 35116 ft | 466 kts | 121° |
| 2026-04-09 22:15 | 47.24076 | 66.26852 | 35116 ft | 466 kts | 121° |
| 2026-04-09 22:16 | 47.20697 | 66.34999 | 35114 ft | 466 kts | 121° |
| 2026-04-09 22:16 | 47.17301 | 66.43144 | 35115 ft | 466 kts | 121° |
| 2026-04-09 22:17 | 47.13909 | 66.51264 | 35118 ft | 466 kts | 121° |
| 2026-04-09 22:17 | 47.10517 | 66.59380 | 35118 ft | 466 kts | 121° |
| 2026-04-09 22:18 | 47.07117 | 66.67480 | 35116 ft | 466 kts | 121° |
| 2026-04-09 22:18 | 47.03728 | 66.75519 | 35115 ft | 466 kts | 121° |
| 2026-04-09 22:19 | 47.00295 | 66.83642 | 35115 ft | 466 kts | 121° |
| 2026-04-09 22:19 | 46.96900 | 66.91655 | 35116 ft | 466 kts | 122° |
| 2026-04-09 22:20 | 46.93492 | 66.99722 | 35115 ft | 466 kts | 121° |
| 2026-04-09 22:20 | 46.90138 | 67.07833 | 35118 ft | 466 kts | 121° |
| 2026-04-09 22:21 | 46.86759 | 67.15921 | 35118 ft | 466 kts | 122° |
| 2026-04-09 22:21 | 46.83299 | 67.23914 | 35118 ft | 466 kts | 122° |
| 2026-04-09 22:22 | 46.79840 | 67.31909 | 35122 ft | 466 kts | 122° |
| 2026-04-09 22:22 | 46.76387 | 67.39873 | 35117 ft | 464 kts | 122° |
| 2026-04-09 22:23 | 46.72934 | 67.47821 | 35121 ft | 464 kts | 122° |
| 2026-04-09 22:23 | 46.69471 | 67.55757 | 35124 ft | 464 kts | 122° |
| 2026-04-09 22:24 | 46.66009 | 67.63682 | 35121 ft | 463 kts | 122° |
| 2026-04-09 22:24 | 46.62583 | 67.71540 | 35120 ft | 462 kts | 122° |
| 2026-04-09 22:25 | 46.59201 | 67.79508 | 35124 ft | 462 kts | 121° |
| 2026-04-09 22:25 | 46.55817 | 67.87456 | 35124 ft | 462 kts | 122° |
| 2026-04-09 22:26 | 46.52396 | 67.95372 | 35124 ft | 462 kts | 122° |
| 2026-04-09 22:26 | 46.48926 | 68.03232 | 35128 ft | 462 kts | 123° |
| 2026-04-09 22:27 | 46.45457 | 68.11088 | 35129 ft | 462 kts | 122° |
| 2026-04-09 22:27 | 46.41984 | 68.18948 | 35130 ft | 462 kts | 122° |
| 2026-04-09 22:28 | 46.38511 | 68.26788 | 35131 ft | 463 kts | 123° |
| 2026-04-09 22:28 | 46.35616 | 68.33302 | 35130 ft | 463 kts | 123° |
| 2026-04-09 22:29 | 46.32130 | 68.41132 | 35129 ft | 463 kts | 123° |
| 2026-04-09 22:29 | 46.28069 | 68.50225 | 35132 ft | 463 kts | 123° |
| 2026-04-09 22:30 | 46.25135 | 68.56774 | 35135 ft | 463 kts | 123° |
| 2026-04-09 22:30 | 46.21654 | 68.64517 | 35133 ft | 462 kts | 123° |
| 2026-04-09 22:31 | 46.18148 | 68.72296 | 35133 ft | 463 kts | 123° |
| 2026-04-09 22:31 | 46.14623 | 68.80094 | 35136 ft | 464 kts | 123° |
| 2026-04-09 22:32 | 46.11095 | 68.87877 | 35140 ft | 464 kts | 124° |
| 2026-04-09 22:32 | 46.07558 | 68.95664 | 35139 ft | 465 kts | 124° |
| 2026-04-09 22:33 | 46.04012 | 69.03447 | 35138 ft | 464 kts | 124° |
| 2026-04-09 22:33 | 46.00464 | 69.11188 | 35142 ft | 463 kts | 125° |
| 2026-04-09 22:34 | 45.96899 | 69.18926 | 35142 ft | 464 kts | 125° |
| 2026-04-09 22:34 | 45.93337 | 69.26644 | 35142 ft | 463 kts | 125° |
| 2026-04-09 22:35 | 45.89769 | 69.34370 | 35139 ft | 464 kts | 125° |
| 2026-04-09 22:35 | 45.86205 | 69.42057 | 35144 ft | 463 kts | 125° |
| 2026-04-09 22:36 | 45.82640 | 69.49715 | 35141 ft | 463 kts | 125° |
| 2026-04-09 22:36 | 45.79057 | 69.57398 | 35141 ft | 463 kts | 125° |
| 2026-04-09 22:37 | 45.75469 | 69.65066 | 35145 ft | 463 kts | 126° |
| 2026-04-09 22:37 | 45.71883 | 69.72708 | 35142 ft | 462 kts | 126° |
| 2026-04-09 22:38 | 45.68291 | 69.80338 | 35144 ft | 462 kts | 126° |
| 2026-04-09 22:38 | 45.64729 | 69.87898 | 35145 ft | 462 kts | 126° |
| 2026-04-09 22:39 | 45.61126 | 69.95516 | 35142 ft | 462 kts | 126° |
| 2026-04-09 22:39 | 45.57532 | 70.03091 | 35139 ft | 461 kts | 127° |
| 2026-04-09 22:40 | 45.53928 | 70.10659 | 35143 ft | 461 kts | 127° |
| 2026-04-09 22:40 | 45.50324 | 70.18226 | 35148 ft | 462 kts | 127° |
| 2026-04-09 22:41 | 45.46694 | 70.25820 | 35143 ft | 464 kts | 127° |
| 2026-04-09 22:41 | 45.43058 | 70.33406 | 35141 ft | 464 kts | 127° |
| 2026-04-09 22:42 | 45.39436 | 70.40935 | 35138 ft | 464 kts | 127° |
| 2026-04-09 22:42 | 45.35788 | 70.48510 | 35139 ft | 464 kts | 127° |
| 2026-04-09 22:43 | 45.32139 | 70.56067 | 35139 ft | 464 kts | 127° |
| 2026-04-09 22:43 | 45.28481 | 70.63612 | 35136 ft | 464 kts | 127° |
| 2026-04-09 22:44 | 45.24814 | 70.71165 | 35136 ft | 464 kts | 127° |
| 2026-04-09 22:44 | 45.21147 | 70.78706 | 35126 ft | 464 kts | 127° |
| 2026-04-09 22:45 | 45.17487 | 70.86234 | 35134 ft | 464 kts | 127° |
| 2026-04-09 22:45 | 45.13814 | 70.93768 | 35131 ft | 463 kts | 128° |
| 2026-04-09 22:46 | 45.10147 | 71.01265 | 35129 ft | 463 kts | 128° |
| 2026-04-09 22:46 | 45.06474 | 71.08755 | 35130 ft | 463 kts | 128° |
| 2026-04-09 22:47 | 45.02796 | 71.16231 | 35133 ft | 463 kts | 128° |
| 2026-04-09 22:47 | 44.99113 | 71.23696 | 35127 ft | 462 kts | 128° |
| 2026-04-09 22:48 | 44.95450 | 71.31108 | 35129 ft | 460 kts | 128° |
| 2026-04-09 22:48 | 44.91808 | 71.38456 | 35127 ft | 460 kts | 128° |
| 2026-04-09 22:49 | 44.88144 | 71.45833 | 35125 ft | 458 kts | 128° |
| 2026-04-09 22:49 | 44.84478 | 71.53190 | 35123 ft | 458 kts | 129° |
| 2026-04-09 22:50 | 44.80817 | 71.60523 | 35133 ft | 457 kts | 129° |
| 2026-04-09 22:50 | 44.77151 | 71.67841 | 35129 ft | 457 kts | 129° |
| 2026-04-09 22:51 | 44.73502 | 71.75108 | 35108 ft | 457 kts | 129° |
| 2026-04-09 22:51 | 44.69813 | 71.82441 | 35108 ft | 457 kts | 129° |
| 2026-04-09 22:52 | 44.66163 | 71.89669 | 35131 ft | 456 kts | 129° |
| 2026-04-09 22:52 | 44.62487 | 71.96942 | 35132 ft | 456 kts | 129° |
| 2026-04-09 22:53 | 44.58805 | 72.04203 | 35123 ft | 455 kts | 129° |
| 2026-04-09 22:53 | 44.55131 | 72.11432 | 35116 ft | 455 kts | 129° |
| 2026-04-09 22:54 | 44.51486 | 72.18592 | 35132 ft | 454 kts | 129° |
| 2026-04-09 22:54 | 44.47810 | 72.25788 | 35134 ft | 454 kts | 129° |
| 2026-04-09 22:55 | 44.44121 | 72.32983 | 35131 ft | 454 kts | 129° |
| 2026-04-09 22:55 | 44.40432 | 72.40168 | 35130 ft | 454 kts | 129° |
| 2026-04-09 22:56 | 44.36745 | 72.47331 | 35130 ft | 453 kts | 130° |
| 2026-04-09 22:56 | 44.33082 | 72.54431 | 35134 ft | 453 kts | 130° |
| 2026-04-09 22:57 | 44.29396 | 72.61553 | 35139 ft | 451 kts | 130° |
| 2026-04-09 22:57 | 44.25728 | 72.68648 | 35136 ft | 450 kts | 130° |
| 2026-04-09 22:58 | 44.22062 | 72.75709 | 35136 ft | 449 kts | 130° |
| 2026-04-09 22:58 | 44.18417 | 72.82720 | 34726 ft | 445 kts | 130° |
| 2026-04-09 22:59 | 44.16600 | 72.86204 | 34373 ft | 444 kts | 131° |
| 2026-04-09 22:59 | 44.14786 | 72.89682 | 33738 ft | 443 kts | 131° |
| 2026-04-09 22:59 | 44.12979 | 72.93143 | 33010 ft | 442 kts | 131° |
| 2026-04-09 22:59 | 44.11167 | 72.96608 | 32216 ft | 442 kts | 131° |
| 2026-04-09 23:00 | 44.09370 | 73.00031 | 31452 ft | 442 kts | 132° |
| 2026-04-09 23:00 | 44.07556 | 73.03487 | 30707 ft | 441 kts | 132° |
| 2026-04-09 23:00 | 44.05751 | 73.06920 | 29932 ft | 439 kts | 132° |
| 2026-04-09 23:00 | 44.03948 | 73.10339 | 29062 ft | 438 kts | 132° |
| 2026-04-09 23:01 | 44.02148 | 73.13752 | 28250 ft | 437 kts | 131° |
| 2026-04-09 23:01 | 44.00343 | 73.17176 | 27504 ft | 441 kts | 131° |
| 2026-04-09 23:01 | 43.98530 | 73.20603 | 26788 ft | 438 kts | 130° |
| 2026-04-09 23:01 | 43.96733 | 73.24000 | 26079 ft | 436 kts | 130° |
| 2026-04-09 23:02 | 43.94946 | 73.27376 | 25401 ft | 433 kts | 130° |
| 2026-04-09 23:02 | 43.93161 | 73.30740 | 24718 ft | 431 kts | 130° |
| 2026-04-09 23:02 | 43.91380 | 73.34087 | 24035 ft | 430 kts | 129° |
| 2026-04-09 23:02 | 43.89599 | 73.37424 | 23285 ft | 430 kts | 129° |
| 2026-04-09 23:03 | 43.87830 | 73.40748 | 22530 ft | 428 kts | 129° |
| 2026-04-09 23:03 | 43.86083 | 73.44024 | 21788 ft | 427 kts | 128° |
| 2026-04-09 23:03 | 43.84318 | 73.47336 | 21066 ft | 426 kts | 128° |
| 2026-04-09 23:03 | 43.82557 | 73.50630 | 20381 ft | 424 kts | 128° |
| 2026-04-09 23:04 | 43.80809 | 73.53896 | 19727 ft | 421 kts | 128° |
| 2026-04-09 23:04 | 43.79067 | 73.57152 | 19092 ft | 419 kts | 128° |
| 2026-04-09 23:04 | 43.77330 | 73.60392 | 18471 ft | 418 kts | 128° |
| 2026-04-09 23:04 | 43.75604 | 73.63611 | 17797 ft | 416 kts | 127° |
| 2026-04-09 23:05 | 43.73879 | 73.66826 | 17121 ft | 415 kts | 128° |
| 2026-04-09 23:05 | 43.72164 | 73.70032 | 16486 ft | 413 kts | 127° |
| 2026-04-09 23:05 | 43.70452 | 73.73208 | 15872 ft | 411 kts | 128° |
| 2026-04-09 23:05 | 43.68569 | 73.76176 | 15262 ft | 408 kts | 137° |
| 2026-04-09 23:06 | 43.66502 | 73.78855 | 14667 ft | 406 kts | 138° |
| 2026-04-09 23:06 | 43.64447 | 73.81479 | 14074 ft | 399 kts | 138° |
| 2026-04-09 23:06 | 43.62428 | 73.84069 | 13425 ft | 392 kts | 137° |
| 2026-04-09 23:06 | 43.60475 | 73.86585 | 12829 ft | 385 kts | 137° |
| 2026-04-09 23:07 | 43.58534 | 73.89083 | 12275 ft | 378 kts | 137° |
| 2026-04-09 23:07 | 43.54698 | 73.93821 | 11384 ft | 360 kts | 139° |
| 2026-04-09 23:07 | 43.52848 | 73.96050 | 11159 ft | 346 kts | 139° |
| 2026-04-09 23:08 | 43.51069 | 73.98191 | 10973 ft | 333 kts | 139° |
| 2026-04-09 23:08 | 43.49356 | 74.00244 | 10813 ft | 320 kts | 139° |
| 2026-04-09 23:08 | 43.47708 | 74.02217 | 10664 ft | 307 kts | 140° |
| 2026-04-09 23:08 | 43.46118 | 74.04121 | 10476 ft | 298 kts | 140° |
| 2026-04-09 23:09 | 43.44561 | 74.05987 | 10069 ft | 297 kts | 140° |
| 2026-04-09 23:09 | 43.43001 | 74.07852 | 9625 ft | 296 kts | 140° |
| 2026-04-09 23:09 | 43.41472 | 74.09683 | 9257 ft | 293 kts | 140° |
| 2026-04-09 23:09 | 43.39936 | 74.11519 | 8838 ft | 292 kts | 140° |
| 2026-04-09 23:10 | 43.38409 | 74.13340 | 8438 ft | 290 kts | 140° |
| 2026-04-09 23:10 | 43.36889 | 74.15151 | 8066 ft | 288 kts | 140° |
| 2026-04-09 23:10 | 43.35384 | 74.16944 | 7734 ft | 285 kts | 140° |
| 2026-04-09 23:10 | 43.33877 | 74.18728 | 7403 ft | 285 kts | 141° |
| 2026-04-09 23:11 | 43.32193 | 74.20096 | 7042 ft | 280 kts | 162° |
| 2026-04-09 23:11 | 43.30286 | 74.20623 | 6707 ft | 281 kts | 172° |
| 2026-04-09 23:11 | 43.28338 | 74.20958 | 6373 ft | 280 kts | 173° |
| 2026-04-09 23:11 | 43.26416 | 74.21291 | 6020 ft | 278 kts | 173° |
| 2026-04-09 23:12 | 43.24501 | 74.21635 | 5625 ft | 276 kts | 173° |
| 2026-04-09 23:12 | 43.22624 | 74.21979 | 5413 ft | 268 kts | 172° |
| 2026-04-09 23:12 | 43.20813 | 74.22321 | 5267 ft | 257 kts | 172° |
| 2026-04-09 23:12 | 43.19076 | 74.22652 | 5148 ft | 246 kts | 172° |
| 2026-04-09 23:13 | 43.17418 | 74.22973 | 5038 ft | 235 kts | 172° |
| 2026-04-09 23:13 | 43.15835 | 74.23280 | 4883 ft | 225 kts | 172° |
| 2026-04-09 23:13 | 43.14344 | 74.23569 | 4736 ft | 213 kts | 172° |
| 2026-04-09 23:13 | 43.12886 | 74.23850 | 4509 ft | 206 kts | 172° |
| 2026-04-09 23:14 | 43.11488 | 74.24120 | 4378 ft | 205 kts | 172° |
| 2026-04-09 23:14 | 43.10076 | 74.24391 | 4366 ft | 205 kts | 172° |
| 2026-04-09 23:14 | 43.08659 | 74.24665 | 4377 ft | 205 kts | 172° |
| 2026-04-09 23:14 | 43.07250 | 74.24945 | 4336 ft | 205 kts | 168° |
| 2026-04-09 23:15 | 43.05980 | 74.25734 | 4011 ft | 201 kts | 138° |
| 2026-04-09 23:15 | 43.05182 | 74.27265 | 3656 ft | 199 kts | 112° |
| 2026-04-09 23:15 | 43.04657 | 74.28993 | 3412 ft | 191 kts | 112° |
| 2026-04-09 23:15 | 43.04280 | 74.30624 | 3404 ft | 170 kts | 101° |
| 2026-04-09 23:16 | 43.04221 | 74.32130 | 3374 ft | 153 kts | 88° |
| 2026-04-09 23:16 | 43.04281 | 74.33073 | 3408 ft | 141 kts | 84° |
| 2026-04-09 23:16 | 43.04416 | 74.34356 | 3399 ft | 135 kts | 83° |
| 2026-04-09 23:16 | 43.04563 | 74.35620 | 3395 ft | 135 kts | 82° |
| 2026-04-09 23:17 | 43.04722 | 74.36884 | 3355 ft | 137 kts | 81° |
| 2026-04-09 23:17 | 43.04888 | 74.38171 | 3196 ft | 137 kts | 82° |
| 2026-04-09 23:17 | 43.05053 | 74.39448 | 3006 ft | 135 kts | 82° |
| 2026-04-09 23:17 | 43.05217 | 74.40716 | 2803 ft | 135 kts | 82° |
| 2026-04-09 23:18 | 43.05383 | 74.41976 | 2594 ft | 135 kts | 81° |
| 2026-04-09 23:18 | 43.05549 | 74.43233 | 2421 ft | 134 kts | 82° |
| 2026-04-09 23:18 | 43.05707 | 74.44486 | 2233 ft | 134 kts | 81° |
| 2026-04-09 23:18 | 43.05866 | 74.45725 | 2085 ft | 126 kts | 81° |
| 2026-04-09 23:19 | 43.05994 | 74.46720 | 2074 ft | 81 kts | 79° |
| 2026-04-09 23:19 | 43.06058 | 74.47222 | 2073 ft | 40 kts | 80° |
| 2026-04-09 23:19 | 43.06108 | 74.47605 | 2071 ft | 42 kts | 81° |
| 2026-04-09 23:19 | 43.06157 | 74.47989 | 2076 ft | 33 kts | 80° |
| 2026-04-09 23:20 | 43.06180 | 74.48228 | 2076 ft | 25 kts | 96° |
| 2026-04-09 23:20 | 43.06146 | 74.48407 | 2073 ft | 14 kts | 121° |
| 2026-04-09 23:20 | 43.06076 | 74.48504 | 2074 ft | 16 kts | 175° |
| 2026-04-09 23:20 | 43.06000 | 74.48401 | 2073 ft | 18 kts | 261° |
| 2026-04-09 23:21 | 43.05976 | 74.48218 | 2070 ft | 21 kts | 259° |
| 2026-04-09 23:21 | 43.05950 | 74.48013 | 2074 ft | 23 kts | 262° |
| 2026-04-09 23:21 | 43.05927 | 74.47828 | 2074 ft | 15 kts | 259° |
| 2026-04-09 23:21 | 43.05905 | 74.47677 | 2071 ft | 17 kts | 259° |
| 2026-04-09 23:22 | 43.05886 | 74.47510 | 2074 ft | 18 kts | 260° |
| 2026-04-09 23:22 | 43.05869 | 74.47382 | 2073 ft | 12 kts | 259° |
| 2026-04-09 23:22 | 43.05853 | 74.47281 | 2074 ft | 12 kts | 266° |
| 2026-04-09 23:22 | 43.05841 | 74.47174 | 2073 ft | 9 kts | 243° |
| 2026-04-09 23:23 | 43.05777 | 74.47156 | 2074 ft | 11 kts | 170° |
| 2026-04-09 23:23 | 43.05690 | 74.47178 | 2071 ft | 11 kts | 169° |
| 2026-04-09 23:23 | 43.05646 | 74.47188 | 2071 ft | 6 kts | 171° |
| 2026-04-09 23:23 | 43.05605 | 74.47169 | 2073 ft | 5 kts | 234° |
| 2026-04-09 23:24 | 43.05599 | 74.47146 | 2073 ft | 3 kts | 268° |
| 2026-04-09 23:24 | 43.05594 | 74.47103 | 2074 ft | 6 kts | 240° |
| 2026-04-09 23:24 | 43.05547 | 74.47094 | 2073 ft | 6 kts | 167° |
| 2026-04-09 23:24 | 43.05534 | 74.47098 | 2073 ft | 0 kts | 169° |